createdAt,value
2023-03-04T00:00:10.583Z,100.00
2023-03-04T00:03:20.672Z,100.00
2023-03-04T00:06:32.907Z,100.00
2023-03-04T00:09:44.785Z,100.00
2023-03-04T00:12:56.602Z,100.00
2023-03-04T00:16:11.621Z,100.00
2023-03-04T00:19:23.573Z,100.00
2023-03-04T00:22:35.436Z,100.00
2023-03-04T00:25:43.725Z,100.00
2023-03-04T00:28:51.514Z,100.00
2023-03-04T00:32:03.555Z,100.00
2023-03-04T00:35:16.378Z,100.00
2023-03-04T00:38:28.385Z,100.00
2023-03-04T00:41:40.471Z,100.00
2023-03-04T00:44:53.512Z,100.00
2023-03-04T00:48:05.417Z,100.00
2023-03-04T00:51:17.414Z,100.00
2023-03-04T00:54:29.296Z,100.00
2023-03-04T00:57:41.745Z,100.00
2023-03-04T01:00:53.617Z,100.00
2023-03-04T01:04:05.649Z,100.00
2023-03-04T01:07:18.229Z,100.00
2023-03-04T01:10:30.168Z,100.00
2023-03-04T01:13:42.561Z,100.00
2023-03-04T01:16:56.416Z,100.00
2023-03-04T01:20:09.233Z,100.00
2023-03-04T01:23:21.390Z,100.00
2023-03-04T01:26:33.433Z,100.00
2023-03-04T01:29:45.498Z,100.00
2023-03-04T01:32:57.453Z,100.00
2023-03-04T01:36:10.084Z,100.00
2023-03-04T01:39:18.009Z,100.00
2023-03-04T01:42:32.563Z,100.00
2023-03-04T01:45:44.762Z,100.00
2023-03-04T01:48:56.755Z,100.00
2023-03-04T01:52:08.851Z,100.00
2023-03-04T01:55:26.191Z,100.00
2023-03-04T01:58:35.403Z,100.00
2023-03-04T02:01:49.548Z,100.00
2023-03-04T02:05:01.534Z,100.00
2023-03-04T02:08:15.147Z,100.00
2023-03-04T02:11:27.291Z,100.00
2023-03-04T02:14:40.059Z,100.00
2023-03-04T02:17:52.252Z,100.00
2023-03-04T02:21:12.332Z,100.00
2023-03-04T02:24:30.677Z,100.00
2023-03-04T02:27:43.051Z,100.00
2023-03-04T02:30:55.254Z,100.00
2023-03-04T02:34:11.204Z,100.00
2023-03-04T02:37:24.091Z,100.00
2023-03-04T02:40:40.204Z,100.00
2023-03-04T02:47:01.492Z,100.00
2023-03-04T02:50:16.308Z,100.00
2023-03-04T02:53:29.813Z,100.00
2023-03-04T02:56:41.748Z,100.00
2023-03-04T02:59:55.152Z,100.00
2023-03-04T03:03:05.084Z,100.00
2023-03-04T03:06:15.075Z,100.00
2023-03-04T03:09:27.824Z,100.00
2023-03-04T03:12:41.122Z,100.00
2023-03-04T03:15:53.679Z,100.00
2023-03-04T03:19:08.169Z,100.00
2023-03-04T03:22:21.072Z,100.00
2023-03-04T03:25:33.115Z,100.00
2023-03-04T03:28:45.002Z,100.00
2023-03-04T03:31:57.248Z,100.00
2023-03-04T03:35:10.684Z,100.00
2023-03-04T03:38:22.917Z,100.00
2023-03-04T03:41:34.752Z,100.00
2023-03-04T03:44:46.630Z,100.00
2023-03-04T03:47:54.333Z,100.00
2023-03-04T03:51:06.203Z,100.00
2023-03-04T03:54:18.122Z,100.00
2023-03-04T03:57:29.996Z,100.00
2023-03-04T04:00:42.006Z,100.00
2023-03-04T04:03:53.973Z,100.00
2023-03-04T04:07:07.782Z,100.00
2023-03-04T04:10:20.559Z,100.00
2023-03-04T04:13:32.521Z,100.00
2023-03-04T04:16:44.463Z,100.00
2023-03-04T04:19:56.736Z,100.00
2023-03-04T04:23:09.253Z,100.00
2023-03-04T04:26:21.286Z,100.00
2023-03-04T04:29:33.633Z,100.00
2023-03-04T04:32:48.066Z,100.00
2023-03-04T04:36:01.324Z,100.00
2023-03-04T04:39:13.366Z,100.00
2023-03-04T04:42:21.032Z,100.00
2023-03-04T04:45:33.260Z,100.00
2023-03-04T04:48:40.954Z,100.00
2023-03-04T04:51:52.804Z,100.00
2023-03-04T04:55:04.868Z,100.00
2023-03-04T04:58:16.888Z,100.00
2023-03-04T05:01:29.622Z,100.00
2023-03-04T05:04:41.679Z,100.00
2023-03-04T05:07:53.575Z,100.00
2023-03-04T05:11:05.736Z,100.00
2023-03-04T05:14:17.797Z,100.00
2023-03-04T05:17:30.112Z,100.00
2023-03-04T05:20:42.043Z,100.00
2023-03-04T05:23:53.968Z,100.00
2023-03-04T05:27:06.113Z,100.00
2023-03-04T05:30:20.339Z,100.00
2023-03-04T05:33:34.014Z,100.00
2023-03-04T05:36:45.911Z,100.00
2023-03-04T05:39:57.812Z,100.00
2023-03-04T05:46:21.331Z,100.00
2023-03-04T05:49:29.103Z,100.00
2023-03-04T05:52:40.988Z,100.00
2023-03-04T05:55:55.646Z,100.00
2023-03-04T05:59:07.792Z,100.00
2023-03-04T06:02:19.979Z,100.00
2023-03-04T06:05:32.141Z,100.00
2023-03-04T06:08:44.207Z,100.00
2023-03-04T06:11:56.075Z,100.00
2023-03-04T06:15:10.126Z,100.00
2023-03-04T06:18:22.142Z,100.00
2023-03-04T06:21:34.121Z,100.00
2023-03-04T06:24:46.274Z,100.00
2023-03-04T06:27:58.657Z,100.00
2023-03-04T06:31:10.960Z,100.00
2023-03-04T06:34:23.290Z,100.00
2023-03-04T06:37:35.327Z,100.00
2023-03-04T06:40:47.366Z,100.00
2023-03-04T06:44:01.700Z,100.00
2023-03-04T06:47:14.152Z,100.00
2023-03-04T06:50:26.458Z,100.00
2023-03-04T06:53:38.601Z,100.00
2023-03-04T06:56:50.601Z,100.00
2023-03-04T07:00:03.491Z,100.00
2023-03-04T07:03:17.221Z,100.00
2023-03-04T07:06:31.558Z,100.00
2023-03-04T07:09:43.725Z,100.00
2023-03-04T07:12:56.090Z,100.00
2023-03-04T07:16:09.538Z,100.00
2023-03-04T07:19:21.976Z,100.00
2023-03-04T07:22:34.112Z,100.00
2023-03-04T07:25:46.294Z,100.00
2023-03-04T07:28:59.925Z,100.00
2023-03-04T07:32:11.062Z,100.00
2023-03-04T07:35:24.003Z,100.00
2023-03-04T07:38:36.489Z,100.00
2023-03-04T07:41:49.010Z,100.00
2023-03-04T07:45:02.107Z,100.00
2023-03-04T07:51:16.832Z,100.00
2023-03-04T07:54:28.986Z,100.00
2023-03-04T07:57:41.074Z,100.00
2023-03-04T08:00:48.802Z,100.00
2023-03-04T08:04:02.585Z,100.00
2023-03-04T08:07:14.769Z,100.00
2023-03-04T08:10:26.902Z,100.00
2023-03-04T08:13:38.912Z,100.00
2023-03-04T08:16:50.834Z,100.00
2023-03-04T08:20:02.803Z,100.00
2023-03-04T08:23:14.848Z,100.00
2023-03-04T08:29:35.898Z,100.00
2023-03-04T08:32:43.778Z,100.00
2023-03-04T08:35:56.031Z,100.00
2023-03-04T08:39:08.280Z,100.00
2023-03-04T08:42:20.321Z,100.00
2023-03-04T08:45:32.344Z,100.00
2023-03-04T08:48:45.026Z,100.00
2023-03-04T08:51:56.976Z,100.00
2023-03-04T08:55:10.011Z,100.00
2023-03-04T08:58:22.176Z,100.00
2023-03-04T09:01:34.426Z,100.00
2023-03-04T09:04:46.757Z,100.00
2023-03-04T09:07:58.636Z,100.00
2023-03-04T09:11:07.344Z,100.00
2023-03-04T09:14:19.353Z,100.00
2023-03-04T09:17:31.630Z,100.00
2023-03-04T09:20:43.701Z,100.00
2023-03-04T09:23:58.560Z,100.00
2023-03-04T09:27:10.553Z,100.00
2023-03-04T09:30:23.944Z,100.00
2023-03-04T09:33:36.098Z,100.00
2023-03-04T09:36:48.117Z,100.00
2023-03-04T09:40:00.034Z,100.00
2023-03-04T09:49:36.820Z,100.00
2023-03-04T09:52:58.878Z,100.00
2023-03-04T09:56:11.969Z,100.00
2023-03-04T09:59:31.494Z,100.00
2023-03-04T10:02:51.654Z,100.00
2023-03-04T10:09:21.103Z,100.00
2023-03-04T10:12:32.987Z,100.00
2023-03-04T10:15:51.116Z,100.00
2023-03-04T10:19:10.532Z,100.00
2023-03-04T10:22:27.189Z,100.00
2023-03-04T10:25:41.216Z,100.00
2023-03-04T10:28:53.803Z,100.00
2023-03-04T10:32:05.704Z,100.00
2023-03-04T10:35:20.541Z,100.00
2023-03-04T10:38:30.873Z,100.00
2023-03-04T10:41:45.484Z,100.00
2023-03-04T10:45:03.762Z,100.00
2023-03-04T10:51:35.279Z,100.00
2023-03-04T10:54:49.057Z,100.00
2023-03-04T10:58:05.334Z,100.00
2023-03-04T11:01:17.858Z,100.00
2023-03-04T11:04:32.235Z,100.00
2023-03-04T11:07:55.855Z,100.00
2023-03-04T11:11:03.201Z,100.00
2023-03-04T11:14:21.577Z,100.00
2023-03-04T11:17:37.817Z,100.00
2023-03-04T11:20:52.827Z,100.00
2023-03-04T11:27:19.655Z,100.00
2023-03-04T11:30:42.008Z,100.00
2023-03-04T11:33:56.026Z,100.00
2023-03-04T11:37:10.352Z,100.00
2023-03-04T11:43:34.791Z,100.00
2023-03-04T11:47:07.985Z,100.00
2023-03-04T11:50:44.564Z,99.71
2023-03-04T11:54:13.793Z,99.59
2023-03-04T11:57:30.871Z,99.56
2023-03-04T12:00:48.263Z,99.49
2023-03-04T12:04:10.374Z,98.81
2023-03-04T12:10:49.235Z,98.81
2023-03-04T12:18:12.537Z,98.84
2023-03-04T12:21:37.665Z,98.63
2023-03-04T12:25:30.771Z,98.75
2023-03-04T12:28:57.758Z,98.76
2023-03-04T12:32:18.544Z,98.97
2023-03-04T12:35:45.566Z,99.36
2023-03-04T12:39:16.431Z,99.18
2023-03-04T12:42:33.347Z,99.12
2023-03-04T12:49:18.620Z,99.37
2023-03-04T12:52:41.662Z,99.73
2023-03-04T12:55:55.862Z,99.43
2023-03-04T12:59:09.109Z,99.09
2023-03-04T13:02:56.501Z,99.42
2023-03-04T13:06:36.029Z,99.67
2023-03-04T13:09:54.733Z,99.02
2023-03-04T13:13:08.536Z,98.77
2023-03-04T13:16:43.007Z,98.70
2023-03-04T13:20:05.208Z,98.90
2023-03-04T13:23:33.536Z,98.77
2023-03-04T13:26:41.906Z,97.96
2023-03-04T13:29:54.374Z,97.67
2023-03-04T13:33:25.930Z,97.57
2023-03-04T13:37:03.665Z,97.74
2023-03-04T13:40:42.330Z,97.19
2023-03-04T13:43:56.072Z,96.63
2023-03-04T13:47:20.514Z,96.44
2023-03-04T13:50:45.073Z,96.21
2023-03-04T13:53:59.474Z,96.01
2023-03-04T13:57:26.286Z,96.38
2023-03-04T14:00:38.682Z,95.82
2023-03-04T14:03:50.920Z,95.76
2023-03-04T14:07:06.448Z,95.59
2023-03-04T14:10:30.337Z,95.45
2023-03-04T14:13:43.525Z,95.61
2023-03-04T14:20:06.039Z,95.46
2023-03-04T14:23:33.330Z,95.26
2023-03-04T14:26:45.502Z,95.51
2023-03-04T14:30:06.025Z,95.76
2023-03-04T14:33:26.003Z,96.32
2023-03-04T14:36:42.121Z,97.07
2023-03-04T14:39:58.489Z,97.10
2023-03-04T14:43:12.183Z,97.50
2023-03-04T14:46:26.039Z,97.79
2023-03-04T14:49:38.887Z,98.29
2023-03-04T14:52:49.221Z,98.50
2023-03-04T14:56:07.207Z,98.57
2023-03-04T14:59:20.936Z,97.92
2023-03-04T15:02:40.301Z,98.06
2023-03-04T15:05:53.012Z,97.38
2023-03-04T15:12:17.453Z,97.30
2023-03-04T15:15:51.083Z,96.25
2023-03-04T15:19:06.289Z,95.63
2023-03-04T15:22:18.210Z,95.26
2023-03-04T15:25:31.110Z,94.87
2023-03-04T15:28:45.723Z,93.99
2023-03-04T15:31:57.648Z,93.76
2023-03-04T15:35:11.009Z,93.64
2023-03-04T15:38:23.214Z,93.66
2023-03-04T15:41:35.168Z,93.10
2023-03-04T15:44:47.382Z,92.44
2023-03-04T15:47:55.721Z,92.09
2023-03-04T15:51:11.346Z,91.86
2023-03-04T15:54:19.188Z,91.33
2023-03-04T15:57:33.440Z,90.84
2023-03-04T16:00:45.432Z,90.36
2023-03-04T16:03:58.069Z,90.54
2023-03-04T16:07:05.883Z,90.50
2023-03-04T16:10:21.161Z,90.13
2023-03-04T16:13:33.253Z,89.97
2023-03-04T16:16:47.104Z,89.95
2023-03-04T16:19:59.136Z,90.22
2023-03-04T16:23:13.854Z,89.96
2023-03-04T16:29:33.631Z,89.56
2023-03-04T16:32:41.470Z,89.29
2023-03-04T16:35:54.301Z,89.01
2023-03-04T16:39:13.041Z,89.63
2023-03-04T16:42:27.385Z,89.38
2023-03-04T16:45:40.234Z,88.94
2023-03-04T16:48:52.773Z,88.91
2023-03-04T16:52:05.054Z,89.01
2023-03-04T16:55:24.697Z,88.94
2023-03-04T16:58:37.257Z,88.56
2023-03-04T17:01:49.994Z,88.72
2023-03-04T17:05:02.040Z,88.66
2023-03-04T17:08:14.051Z,88.55
2023-03-04T17:11:28.242Z,88.49
2023-03-04T17:14:41.238Z,88.49
2023-03-04T17:17:53.749Z,88.50
2023-03-04T17:21:13.211Z,88.20
2023-03-04T17:24:21.021Z,88.18
2023-03-04T17:27:33.012Z,88.40
2023-03-04T17:30:41.560Z,88.15
2023-03-04T17:33:54.484Z,88.06
2023-03-04T17:37:06.569Z,88.34
2023-03-04T17:43:27.193Z,88.20
2023-03-04T17:46:39.516Z,88.38
2023-03-04T17:49:51.491Z,88.35
2023-03-04T17:53:03.458Z,88.48
2023-03-04T17:56:17.366Z,88.27
2023-03-04T17:59:30.352Z,88.24
2023-03-04T18:02:42.688Z,88.19
2023-03-04T18:05:54.881Z,88.21
2023-03-04T18:09:07.064Z,88.13
2023-03-04T18:12:19.659Z,88.16
2023-03-04T18:15:31.770Z,88.14
2023-03-04T18:18:44.418Z,88.54
2023-03-04T18:21:56.389Z,88.54
2023-03-04T18:25:11.030Z,88.39
2023-03-04T18:28:23.141Z,88.39
2023-03-04T18:31:37.133Z,88.64
2023-03-04T18:34:49.185Z,87.99
2023-03-04T18:38:01.390Z,88.39
2023-03-04T18:44:21.791Z,89.25
2023-03-04T18:47:34.574Z,89.08
2023-03-04T18:50:46.575Z,89.77
2023-03-04T18:53:58.650Z,90.16
2023-03-04T18:57:16.629Z,90.21
2023-03-04T19:00:30.464Z,90.27
2023-03-04T19:03:44.603Z,90.86
2023-03-04T19:06:52.596Z,90.79
2023-03-04T19:13:05.475Z,91.51
2023-03-04T19:19:18.068Z,91.48
2023-03-04T19:22:30.243Z,91.89
2023-03-04T19:25:43.435Z,92.58
2023-03-04T19:28:55.498Z,92.35
2023-03-04T19:32:07.640Z,92.48
2023-03-04T19:35:19.713Z,92.63
2023-03-04T19:38:31.797Z,92.64
2023-03-04T19:41:40.029Z,92.60
2023-03-04T19:44:52.050Z,92.82
2023-03-04T19:47:59.817Z,93.01
2023-03-04T19:51:19.778Z,92.82
2023-03-04T19:54:31.889Z,92.77
2023-03-04T19:57:44.595Z,92.78
2023-03-04T20:00:58.025Z,93.00
2023-03-04T20:04:14.481Z,93.09
2023-03-04T20:07:26.476Z,92.93
2023-03-04T20:10:44.736Z,93.39
2023-03-04T20:16:58.736Z,93.61
2023-03-04T20:20:14.439Z,93.39
2023-03-04T20:23:29.185Z,93.57
2023-03-04T20:26:40.617Z,93.70
2023-03-04T20:29:53.461Z,93.55
2023-03-04T20:33:01.143Z,93.81
2023-03-04T20:36:09.895Z,93.87
2023-03-04T20:39:29.097Z,93.99
2023-03-04T20:42:36.200Z,94.46
2023-03-04T20:45:48.340Z,94.55
2023-03-04T20:49:01.074Z,94.94
2023-03-04T20:52:14.541Z,94.88
2023-03-04T20:55:28.072Z,95.43
2023-03-04T20:58:40.801Z,96.01
2023-03-04T21:05:19.840Z,95.99
2023-03-04T21:08:31.904Z,96.30
2023-03-04T21:11:44.776Z,96.61
2023-03-04T21:14:56.824Z,96.97
2023-03-04T21:18:09.334Z,97.56
2023-03-04T21:21:26.170Z,97.86
2023-03-04T21:24:40.365Z,98.19
2023-03-04T21:27:52.368Z,98.86
2023-03-04T21:34:13.519Z,96.71
2023-03-04T21:37:26.328Z,96.99
2023-03-04T21:40:39.410Z,98.09
2023-03-04T21:43:52.239Z,95.47
2023-03-04T21:47:05.521Z,94.76
2023-03-04T21:50:18.779Z,96.71
2023-03-04T21:53:30.815Z,96.04
2023-03-04T21:59:49.761Z,93.88
2023-03-04T22:03:01.763Z,93.74
2023-03-04T22:06:17.346Z,94.86
2023-03-04T22:09:29.494Z,95.93
2023-03-04T22:12:42.074Z,94.44
2023-03-04T22:15:54.373Z,96.28
2023-03-04T22:19:07.029Z,97.46
2023-03-04T22:22:19.910Z,98.14
2023-03-04T22:25:32.399Z,97.10
2023-03-04T22:28:45.075Z,95.69
2023-03-04T22:31:57.124Z,95.37
2023-03-04T22:35:10.468Z,95.81
2023-03-04T22:38:22.839Z,95.86
2023-03-04T22:41:34.849Z,95.72
2023-03-04T22:44:46.880Z,96.02
2023-03-04T22:48:00.523Z,96.60
2023-03-04T22:51:15.183Z,96.71
2023-03-04T22:54:28.070Z,97.08
2023-03-04T22:57:40.008Z,97.56
2023-03-04T23:00:52.179Z,97.70
2023-03-04T23:04:05.043Z,98.23
2023-03-04T23:07:17.119Z,98.21
2023-03-04T23:10:31.137Z,97.76
2023-03-04T23:13:43.770Z,97.89
2023-03-04T23:16:56.146Z,98.14
2023-03-04T23:20:08.644Z,98.03
2023-03-04T23:23:20.888Z,97.94
2023-03-04T23:26:36.470Z,98.83
2023-03-04T23:29:48.542Z,99.02
2023-03-04T23:33:00.544Z,98.25
2023-03-04T23:36:15.256Z,97.39
2023-03-04T23:39:27.776Z,96.58
2023-03-04T23:42:39.712Z,96.78
2023-03-04T23:48:58.447Z,97.78
2023-03-04T23:52:11.216Z,98.70
2023-03-04T23:55:25.639Z,98.94
2023-03-04T23:58:37.517Z,98.72
